createdAt,value
2023-02-07T00:00:26.883Z,0.25
2023-02-07T00:02:55.923Z,0.21
2023-02-07T00:05:22.644Z,0.20
2023-02-07T00:08:04.111Z,0.18
2023-02-07T00:10:30.973Z,0.16
2023-02-07T00:12:57.682Z,0.14
2023-02-07T00:15:24.621Z,0.11
2023-02-07T00:18:00.116Z,0.11
2023-02-07T00:20:26.638Z,0.06
2023-02-07T00:23:04.904Z,0.05
2023-02-07T00:25:31.517Z,0.02
2023-02-07T00:27:58.119Z,0.04
2023-02-07T00:30:24.751Z,0.00
2023-02-07T00:32:51.237Z,-0.06
2023-02-07T00:35:18.869Z,-0.09
2023-02-07T00:37:45.426Z,-0.12
2023-02-07T00:40:12.055Z,-0.16
2023-02-07T00:42:38.765Z,-0.22
2023-02-07T00:45:05.442Z,-0.24
2023-02-07T00:47:31.982Z,-0.26
2023-02-07T00:49:58.511Z,-0.25
2023-02-07T00:52:27.843Z,-0.25
2023-02-07T00:54:54.520Z,-0.32
2023-02-07T00:57:21.071Z,-0.35
2023-02-07T00:59:47.642Z,-0.37
2023-02-07T01:02:14.150Z,-0.38
2023-02-07T01:04:40.846Z,-0.40
2023-02-07T01:07:08.293Z,-0.41
2023-02-07T01:09:37.593Z,-0.45
2023-02-07T01:12:08.381Z,-0.54
2023-02-07T01:17:18.710Z,-0.64
2023-02-07T01:19:45.681Z,-0.64
2023-02-07T01:22:12.256Z,-0.64
2023-02-07T01:24:39.089Z,-0.68
2023-02-07T01:27:05.642Z,-0.66
2023-02-07T01:29:33.213Z,-0.70
2023-02-07T01:32:00.727Z,-0.74
2023-02-07T01:34:27.610Z,-0.76
2023-02-07T01:36:58.396Z,-0.78
2023-02-07T01:39:24.838Z,-0.80
2023-02-07T01:42:17.468Z,-0.81
2023-02-07T01:44:43.872Z,-0.82
2023-02-07T01:47:23.357Z,-0.81
2023-02-07T01:49:52.556Z,-0.83
2023-02-07T01:52:36.536Z,-0.87
2023-02-07T01:55:08.856Z,-0.91
2023-02-07T01:57:36.516Z,-0.95
2023-02-07T02:00:04.822Z,-0.98
2023-02-07T02:02:42.918Z,-0.98
2023-02-07T02:05:11.115Z,-1.01
2023-02-07T02:07:48.234Z,-1.02
2023-02-07T02:10:17.363Z,-1.04
2023-02-07T02:13:09.894Z,-1.13
2023-02-07T02:15:49.255Z,-1.14
2023-02-07T02:19:01.249Z,-1.16
2023-02-07T02:21:48.374Z,-1.15
2023-02-07T02:24:35.569Z,-1.22
2023-02-07T02:27:42.087Z,-1.28
2023-02-07T02:30:36.050Z,-1.32
2023-02-07T02:33:08.738Z,-1.33
2023-02-07T02:36:02.752Z,-1.31
2023-02-07T02:38:42.994Z,-1.40
2023-02-07T02:41:21.525Z,-1.44
2023-02-07T02:44:13.557Z,-1.46
2023-02-07T02:46:42.783Z,-1.45
2023-02-07T02:49:27.791Z,-1.46
2023-02-07T02:51:56.105Z,-1.49
2023-02-07T02:54:44.654Z,-1.51
2023-02-07T02:57:55.928Z,-1.54
2023-02-07T03:00:45.084Z,-1.56
2023-02-07T03:03:44.605Z,-1.58
2023-02-07T03:06:39.685Z,-1.61
2023-02-07T03:09:34.533Z,-1.63
2023-02-07T03:12:27.273Z,-1.68
2023-02-07T03:15:18.895Z,-1.71
2023-02-07T03:17:59.696Z,-1.74
2023-02-07T03:21:13.778Z,-1.81
2023-02-07T03:23:43.355Z,-1.83
2023-02-07T03:26:15.876Z,-1.86
2023-02-07T03:28:43.386Z,-1.87
2023-02-07T03:31:13.914Z,-1.88
2023-02-07T03:33:56.038Z,-1.89
2023-02-07T03:37:01.008Z,-1.93
2023-02-07T03:39:28.136Z,-1.97
2023-02-07T03:42:04.669Z,-2.01
2023-02-07T03:44:38.105Z,-2.03
2023-02-07T03:47:04.960Z,-2.04
2023-02-07T03:50:10.200Z,-2.06
2023-02-07T03:52:39.680Z,-2.07
2023-02-07T03:55:09.381Z,-2.05
2023-02-07T03:57:42.247Z,-2.05
2023-02-07T04:00:34.209Z,-2.06
2023-02-07T04:03:00.858Z,-2.07
2023-02-07T04:06:17.938Z,-2.11
2023-02-07T04:08:46.025Z,-2.12
2023-02-07T04:11:12.598Z,-2.12
2023-02-07T04:13:47.429Z,-2.15
2023-02-07T04:17:03.803Z,-2.17
2023-02-07T04:22:23.447Z,-2.18
2023-02-07T04:24:50.392Z,-2.19
2023-02-07T04:27:26.101Z,-2.21
2023-02-07T04:29:52.720Z,-2.22
2023-02-07T04:32:19.378Z,-2.26
2023-02-07T04:34:46.003Z,-2.27
2023-02-07T04:37:18.491Z,-2.27
2023-02-07T04:40:09.848Z,-2.27
2023-02-07T04:42:42.348Z,-2.39
2023-02-07T04:45:24.249Z,-2.43
2023-02-07T04:47:51.101Z,-2.47
2023-02-07T04:50:17.864Z,-2.46
2023-02-07T04:52:45.932Z,-2.47
2023-02-07T04:55:12.561Z,-2.54
2023-02-07T04:58:05.247Z,-2.62
2023-02-07T05:00:45.807Z,-2.68
2023-02-07T05:04:02.852Z,-2.67
2023-02-07T05:06:29.561Z,-2.67
2023-02-07T05:08:56.074Z,-2.69
2023-02-07T05:11:25.821Z,-2.75
2023-02-07T05:13:52.711Z,-2.82
2023-02-07T05:16:19.556Z,-2.80
2023-02-07T05:18:46.178Z,-2.84
2023-02-07T05:21:12.763Z,-2.87
2023-02-07T05:23:41.590Z,-2.88
2023-02-07T05:26:08.534Z,-2.88
2023-02-07T05:28:38.755Z,-2.87
2023-02-07T05:31:14.730Z,-2.87
2023-02-07T05:33:48.278Z,-2.90
2023-02-07T05:36:23.804Z,-2.93
2023-02-07T05:38:50.350Z,-2.91
2023-02-07T05:41:16.976Z,-2.91
2023-02-07T05:43:43.546Z,-2.94
2023-02-07T05:46:10.415Z,-2.95
2023-02-07T05:48:39.498Z,-2.94
2023-02-07T05:51:19.001Z,-2.99
2023-02-07T05:53:46.227Z,-2.98
2023-02-07T05:56:26.261Z,-2.96
2023-02-07T05:58:53.767Z,-2.99
2023-02-07T06:01:23.437Z,-3.00
2023-02-07T06:03:51.601Z,-2.99
2023-02-07T06:06:18.615Z,-3.00
2023-02-07T06:08:45.218Z,-3.02
2023-02-07T06:11:11.840Z,-3.05
2023-02-07T06:13:39.462Z,-3.06
2023-02-07T06:16:11.998Z,-3.10
2023-02-07T06:18:39.283Z,-3.09
2023-02-07T06:21:12.060Z,-3.10
2023-02-07T06:23:39.272Z,-3.12
2023-02-07T06:26:12.615Z,-3.17
2023-02-07T06:28:41.632Z,-3.16
2023-02-07T06:33:48.850Z,-3.24
2023-02-07T06:36:15.399Z,-3.24
2023-02-07T06:38:41.884Z,-3.27
2023-02-07T06:41:11.224Z,-3.28
2023-02-07T06:43:38.872Z,-3.27
2023-02-07T06:46:11.653Z,-3.28
2023-02-07T06:48:38.368Z,-3.30
2023-02-07T06:51:11.075Z,-3.33
2023-02-07T06:53:41.027Z,-3.32
2023-02-07T06:57:08.051Z,-3.33
2023-02-07T07:00:24.933Z,-3.34
2023-02-07T07:02:52.950Z,-3.34
2023-02-07T07:05:43.183Z,-3.33
2023-02-07T07:08:15.314Z,-3.30
2023-02-07T07:10:41.834Z,-3.30
2023-02-07T07:13:08.676Z,-3.30
2023-02-07T07:15:40.073Z,-3.28
2023-02-07T07:18:14.040Z,-3.29
2023-02-07T07:20:42.720Z,-3.29
2023-02-07T07:23:09.251Z,-3.29
2023-02-07T07:25:36.195Z,-3.29
2023-02-07T07:28:05.160Z,-3.26
2023-02-07T07:30:31.840Z,-3.22
2023-02-07T07:32:58.468Z,-3.17
2023-02-07T07:35:28.983Z,-3.12
2023-02-07T07:37:55.727Z,-3.05
2023-02-07T07:41:12.716Z,-2.95
2023-02-07T07:44:04.907Z,-2.74
2023-02-07T07:46:43.501Z,-2.26
2023-02-07T07:49:14.250Z,-1.73
2023-02-07T07:51:40.771Z,-1.60
2023-02-07T07:55:13.985Z,-1.10
2023-02-07T07:58:12.359Z,-0.56
2023-02-07T08:00:43.051Z,0.06
2023-02-07T08:03:36.958Z,0.94
2023-02-07T08:06:04.114Z,1.60
2023-02-07T08:08:31.828Z,2.50
2023-02-07T08:11:11.701Z,3.55
2023-02-07T08:14:06.100Z,4.31
2023-02-07T08:19:17.406Z,5.52
2023-02-07T08:22:10.931Z,6.02
2023-02-07T08:24:37.580Z,6.63
2023-02-07T08:27:06.496Z,6.90
2023-02-07T08:29:33.505Z,7.03
2023-02-07T08:32:12.062Z,6.99
2023-02-07T08:34:39.120Z,7.05
2023-02-07T08:37:11.911Z,7.43
2023-02-07T08:39:41.264Z,7.63
2023-02-07T08:42:13.469Z,7.73
2023-02-07T08:44:44.780Z,7.92
2023-02-07T08:47:16.817Z,8.37
2023-02-07T08:49:46.438Z,8.80
2023-02-07T08:52:14.488Z,8.71
2023-02-07T08:55:07.208Z,9.57
2023-02-07T08:57:40.396Z,9.97
2023-02-07T09:00:07.978Z,10.70
2023-02-07T09:02:34.916Z,11.26
2023-02-07T09:05:48.953Z,10.87
2023-02-07T09:08:15.894Z,10.99
2023-02-07T09:10:54.153Z,11.33
2023-02-07T09:13:21.556Z,11.86
2023-02-07T09:15:56.705Z,12.17
2023-02-07T09:18:24.497Z,12.21
2023-02-07T09:20:53.528Z,12.84
2023-02-07T09:23:21.342Z,12.69
2023-02-07T09:25:52.514Z,12.97
2023-02-07T09:28:26.609Z,13.41
2023-02-07T09:30:53.532Z,13.50
2023-02-07T09:33:29.897Z,13.03
2023-02-07T09:35:59.291Z,13.18
2023-02-07T09:38:46.010Z,12.81
2023-02-07T09:41:22.656Z,13.44
2023-02-07T09:44:32.645Z,13.67
2023-02-07T09:47:26.113Z,13.37
2023-02-07T09:56:52.555Z,13.84
2023-02-07T09:59:48.459Z,14.22
2023-02-07T10:03:17.557Z,14.52
2023-02-07T10:06:17.500Z,14.74
2023-02-07T10:09:18.788Z,14.86
2023-02-07T10:12:28.143Z,15.17
2023-02-07T10:15:50.997Z,15.34
2023-02-07T10:18:44.408Z,15.44
2023-02-07T10:21:24.832Z,15.35
2023-02-07T10:24:09.619Z,15.71
2023-02-07T10:26:43.507Z,15.76
2023-02-07T10:29:28.812Z,15.53
2023-02-07T10:32:01.213Z,15.71
2023-02-07T10:34:38.018Z,15.58
2023-02-07T10:37:22.905Z,15.91
2023-02-07T10:40:05.473Z,16.18
2023-02-07T10:42:36.297Z,16.45
2023-02-07T10:45:06.457Z,16.32
2023-02-07T10:47:42.530Z,16.20
2023-02-07T10:50:41.472Z,16.32
2023-02-07T10:53:53.663Z,16.16
2023-02-07T10:56:53.578Z,16.35
2023-02-07T11:00:43.696Z,16.42
2023-02-07T11:03:20.700Z,15.99
2023-02-07T11:05:59.808Z,15.92
2023-02-07T11:08:32.603Z,15.69
2023-02-07T11:11:17.206Z,15.18
2023-02-07T11:13:52.591Z,15.53
2023-02-07T11:16:22.228Z,15.33
2023-02-07T11:19:17.238Z,15.12
2023-02-07T11:21:54.345Z,15.05
2023-02-07T11:28:24.192Z,15.50
2023-02-07T11:33:18.051Z,15.87
2023-02-07T11:35:08.235Z,15.28
2023-02-07T11:37:53.580Z,14.81
2023-02-07T11:40:48.015Z,14.84
2023-02-07T11:43:16.634Z,14.38
2023-02-07T11:46:11.233Z,14.64
2023-02-07T11:52:00.195Z,14.25
2023-02-07T11:54:29.960Z,13.96
2023-02-07T12:04:12.454Z,14.74
2023-02-07T12:07:05.153Z,15.22
2023-02-07T12:10:20.074Z,15.55
2023-02-07T12:12:58.382Z,15.00
2023-02-07T12:15:39.761Z,15.34
2023-02-07T12:19:15.567Z,14.96
2023-02-07T12:25:09.018Z,15.31
2023-02-07T12:27:44.859Z,14.70
2023-02-07T12:30:14.767Z,14.77
2023-02-07T12:32:51.198Z,15.07
2023-02-07T12:35:56.967Z,14.90
2023-02-07T12:38:26.242Z,14.51
2023-02-07T12:41:17.299Z,14.75
2023-02-07T12:44:14.821Z,14.60
2023-02-07T12:47:11.533Z,13.78
2023-02-07T12:53:08.666Z,12.48
2023-02-07T12:55:52.400Z,11.88
2023-02-07T12:58:40.809Z,12.08
2023-02-07T13:01:44.153Z,11.56
2023-02-07T13:04:49.157Z,11.05
2023-02-07T13:07:54.310Z,10.81
2023-02-07T13:11:04.866Z,10.69
2023-02-07T13:13:40.504Z,10.47
2023-02-07T13:19:02.507Z,10.12
2023-02-07T13:22:01.467Z,10.11
2023-02-07T13:24:38.340Z,10.04
2023-02-07T13:27:11.285Z,9.89
2023-02-07T13:29:40.743Z,10.03
2023-02-07T13:32:30.896Z,10.07
2023-02-07T13:35:13.937Z,9.90
2023-02-07T13:38:08.618Z,9.61
2023-02-07T13:40:59.762Z,9.57
2023-02-07T13:44:15.742Z,9.49
2023-02-07T13:47:04.318Z,9.48
2023-02-07T13:50:06.399Z,9.37
2023-02-07T13:52:43.151Z,9.16
2023-02-07T13:55:38.647Z,8.97
2023-02-07T13:58:52.114Z,9.05
2023-02-07T14:01:24.840Z,9.04
2023-02-07T14:04:13.787Z,8.65
2023-02-07T14:06:42.528Z,8.82
2023-02-07T14:09:21.187Z,8.84
2023-02-07T14:11:50.464Z,8.85
2023-02-07T14:14:16.956Z,8.77
2023-02-07T14:16:59.199Z,8.55
2023-02-07T14:19:40.862Z,8.35
2023-02-07T14:22:52.675Z,8.31
2023-02-07T14:25:31.623Z,8.31
2023-02-07T14:28:46.084Z,8.37
2023-02-07T14:31:23.062Z,8.15
2023-02-07T14:34:34.699Z,8.01
2023-02-07T14:37:39.154Z,7.96
2023-02-07T14:40:08.361Z,7.97
2023-02-07T14:43:14.102Z,7.92
2023-02-07T14:45:59.472Z,7.78
2023-02-07T14:48:47.199Z,7.76
2023-02-07T14:51:19.109Z,7.89
2023-02-07T14:54:03.875Z,7.76
2023-02-07T14:57:07.815Z,7.74
2023-02-07T14:59:54.161Z,7.62
2023-02-07T15:02:51.422Z,7.48
2023-02-07T15:05:22.993Z,7.41
2023-02-07T15:08:03.955Z,7.36
2023-02-07T15:10:44.843Z,7.26
2023-02-07T15:13:42.881Z,7.20
2023-02-07T15:16:31.852Z,7.17
2023-02-07T15:19:19.553Z,7.08
2023-02-07T15:21:49.524Z,6.96
2023-02-07T15:24:39.827Z,6.97
2023-02-07T15:27:29.467Z,6.97
2023-02-07T15:29:58.687Z,6.99
2023-02-07T15:32:55.386Z,6.91
2023-02-07T15:35:40.508Z,6.81
2023-02-07T15:38:17.141Z,6.77
2023-02-07T15:40:55.916Z,6.73
2023-02-07T15:43:27.428Z,6.70
2023-02-07T15:46:11.883Z,6.72
2023-02-07T15:49:35.780Z,6.63
2023-02-07T15:52:05.861Z,6.54
2023-02-07T15:54:38.237Z,6.57
2023-02-07T15:57:09.149Z,6.50
2023-02-07T15:59:46.880Z,6.42
2023-02-07T16:02:31.906Z,6.36
2023-02-07T16:05:39.085Z,6.38
2023-02-07T16:08:09.031Z,6.46
2023-02-07T16:13:22.090Z,6.43
2023-02-07T16:16:19.935Z,6.35
2023-02-07T16:18:49.834Z,6.23
2023-02-07T16:21:26.083Z,6.15
2023-02-07T16:24:37.680Z,6.12
2023-02-07T16:27:21.626Z,6.01
2023-02-07T16:29:48.818Z,6.02
2023-02-07T16:32:17.189Z,6.06
2023-02-07T16:35:05.211Z,6.06
2023-02-07T16:37:34.959Z,5.97
2023-02-07T16:40:10.454Z,5.86
2023-02-07T16:42:42.128Z,5.81
2023-02-07T16:45:29.889Z,5.79
2023-02-07T16:47:59.896Z,5.73
2023-02-07T16:50:41.265Z,5.69
2023-02-07T16:53:08.453Z,5.65
2023-02-07T17:02:31.779Z,5.32
2023-02-07T17:04:58.434Z,5.26
2023-02-07T17:07:25.130Z,5.17
2023-02-07T17:10:40.001Z,5.13
2023-02-07T17:13:07.532Z,5.01
2023-02-07T17:15:35.517Z,4.93
2023-02-07T17:21:23.737Z,4.73
2023-02-07T17:24:13.213Z,4.64
2023-02-07T17:26:40.393Z,4.59
2023-02-07T17:29:23.711Z,4.53
2023-02-07T17:31:59.045Z,4.46
2023-02-07T17:34:28.873Z,4.39
2023-02-07T17:36:57.567Z,4.30
2023-02-07T17:39:33.231Z,4.24
2023-02-07T17:41:59.884Z,4.15
2023-02-07T17:44:42.388Z,4.09
2023-02-07T17:47:11.652Z,4.00
2023-02-07T17:49:38.353Z,3.95
2023-02-07T17:52:07.622Z,3.87
2023-02-07T17:54:46.122Z,3.83
2023-02-07T17:58:04.439Z,3.79
2023-02-07T18:07:56.677Z,3.42
2023-02-07T18:13:35.062Z,3.30
2023-02-07T18:16:23.938Z,3.25
2023-02-07T18:18:58.374Z,3.18
2023-02-07T18:21:39.039Z,3.10
2023-02-07T18:24:31.206Z,3.00
2023-02-07T18:27:17.048Z,2.97
2023-02-07T18:29:50.564Z,2.95
2023-02-07T18:32:17.424Z,2.91
2023-02-07T18:34:53.390Z,2.80
2023-02-07T18:37:21.844Z,2.74
2023-02-07T18:40:04.465Z,2.70
2023-02-07T18:42:56.879Z,2.63
2023-02-07T18:45:36.519Z,2.57
2023-02-07T18:48:04.575Z,2.51
2023-02-07T18:50:31.402Z,2.52
2023-02-07T18:52:58.154Z,2.48
2023-02-07T18:55:24.706Z,2.41
2023-02-07T18:57:55.450Z,2.33
2023-02-07T19:00:22.481Z,2.30
2023-02-07T19:02:49.137Z,2.24
2023-02-07T19:05:15.936Z,2.20
2023-02-07T19:07:42.747Z,2.16
2023-02-07T19:10:12.410Z,2.10
2023-02-07T19:12:39.365Z,2.05
2023-02-07T19:15:06.845Z,2.00
2023-02-07T19:17:34.629Z,1.94
2023-02-07T19:20:01.176Z,1.91
2023-02-07T19:22:35.307Z,1.90
2023-02-07T19:25:04.853Z,1.85
2023-02-07T19:27:32.886Z,1.83
2023-02-07T19:29:59.736Z,1.81
2023-02-07T19:32:31.747Z,1.75
2023-02-07T19:35:04.057Z,1.68
2023-02-07T19:37:30.643Z,1.61
2023-02-07T19:39:57.364Z,1.59
2023-02-07T19:42:27.119Z,1.57
2023-02-07T19:44:56.879Z,1.52
2023-02-07T19:47:26.885Z,1.50
2023-02-07T19:49:55.044Z,1.46
2023-02-07T19:52:25.866Z,1.39
2023-02-07T19:54:56.729Z,1.28
2023-02-07T19:57:25.265Z,1.23
2023-02-07T19:59:51.842Z,1.17
2023-02-07T20:02:18.434Z,1.12
2023-02-07T20:04:45.061Z,1.07
2023-02-07T20:07:11.714Z,1.02
2023-02-07T20:09:38.962Z,0.98
2023-02-07T20:12:17.994Z,0.94
2023-02-07T20:14:46.334Z,0.92
2023-02-07T20:17:19.997Z,0.90
2023-02-07T20:19:46.499Z,0.80
2023-02-07T20:22:13.612Z,0.74
2023-02-07T20:24:40.186Z,0.61
2023-02-07T20:27:13.871Z,0.51
2023-02-07T20:29:40.427Z,0.46
2023-02-07T20:32:06.990Z,0.46
2023-02-07T20:34:41.811Z,0.40
2023-02-07T20:37:08.887Z,0.42
2023-02-07T20:39:35.612Z,0.40
2023-02-07T20:42:14.150Z,0.39
2023-02-07T20:44:50.448Z,0.38
2023-02-07T20:47:56.556Z,0.35
2023-02-07T20:50:23.441Z,0.30
2023-02-07T20:53:12.913Z,0.29
2023-02-07T20:55:39.540Z,0.26
2023-02-07T20:58:06.112Z,0.23
2023-02-07T21:00:41.776Z,0.21
2023-02-07T21:03:08.584Z,0.17
2023-02-07T21:05:38.176Z,0.13
2023-02-07T21:08:05.077Z,0.11
2023-02-07T21:10:57.094Z,0.06
2023-02-07T21:13:30.329Z,0.00
2023-02-07T21:16:03.273Z,-0.06
2023-02-07T21:18:39.743Z,-0.08
2023-02-07T21:21:09.129Z,-0.15
2023-02-07T21:23:35.866Z,-0.19
2023-02-07T21:26:07.629Z,-0.20
2023-02-07T21:28:41.962Z,-0.23
2023-02-07T21:31:11.650Z,-0.26
2023-02-07T21:33:42.123Z,-0.30
2023-02-07T21:36:14.478Z,-0.35
2023-02-07T21:38:45.530Z,-0.38
2023-02-07T21:41:26.951Z,-0.45
2023-02-07T21:44:21.102Z,-0.49
2023-02-07T21:47:02.444Z,-0.50
2023-02-07T21:49:33.111Z,-0.53
2023-02-07T21:52:00.824Z,-0.56
2023-02-07T21:54:52.866Z,-0.61
2023-02-07T21:57:25.559Z,-0.63
2023-02-07T21:59:53.239Z,-0.64
2023-02-07T22:02:37.826Z,-0.68
2023-02-07T22:05:04.694Z,-0.74
2023-02-07T22:07:31.887Z,-0.77
2023-02-07T22:09:58.709Z,-0.79
2023-02-07T22:12:25.338Z,-0.81
2023-02-07T22:14:53.209Z,-0.85
2023-02-07T22:17:19.956Z,-0.89
2023-02-07T22:19:50.210Z,-0.93
2023-02-07T22:22:17.454Z,-0.95
2023-02-07T22:24:45.795Z,-1.02
2023-02-07T22:27:12.609Z,-1.07
2023-02-07T22:29:40.109Z,-1.09
2023-02-07T22:32:32.067Z,-1.06
2023-02-07T22:35:05.232Z,-1.14
2023-02-07T22:37:31.899Z,-1.18
2023-02-07T22:40:07.913Z,-1.19
2023-02-07T22:42:35.190Z,-1.20
2023-02-07T22:45:11.341Z,-1.21
2023-02-07T22:47:37.895Z,-1.25
2023-02-07T22:50:13.188Z,-1.28
2023-02-07T22:52:39.775Z,-1.30
2023-02-07T22:55:06.510Z,-1.32
2023-02-07T22:57:33.013Z,-1.30
2023-02-07T23:00:00.838Z,-1.36
2023-02-07T23:02:28.339Z,-1.36
2023-02-07T23:05:07.171Z,-1.44
2023-02-07T23:07:33.731Z,-1.46
2023-02-07T23:10:00.458Z,-1.48
2023-02-07T23:12:52.830Z,-1.54
2023-02-07T23:15:23.227Z,-1.55
2023-02-07T23:17:49.950Z,-1.58
2023-02-07T23:20:16.506Z,-1.58
2023-02-07T23:23:08.470Z,-1.60
2023-02-07T23:25:34.988Z,-1.66
2023-02-07T23:28:26.698Z,-1.67
2023-02-07T23:30:53.373Z,-1.71
2023-02-07T23:33:46.526Z,-1.76
2023-02-07T23:36:22.712Z,-1.77
2023-02-07T23:38:50.560Z,-1.80
2023-02-07T23:41:17.567Z,-1.83
2023-02-07T23:44:09.492Z,-1.90
2023-02-07T23:46:50.239Z,-1.91
2023-02-07T23:49:16.909Z,-1.94
2023-02-07T23:51:51.544Z,-1.93
2023-02-07T23:54:18.129Z,-2.03
2023-02-07T23:56:44.650Z,-2.05
2023-02-07T23:59:26.882Z,-2.10
